sensor_id;sensor_type;location;lat;lon;timestamp;pressure;altitude;pressure_sealevel;temperature;humidity
13661;BME280;6903;49.480;11.102;2023-05-07T00:01:13;97884.13;;;13.81;100.00
13661;BME280;6903;49.480;11.102;2023-05-07T00:03:38;97892.34;;;13.78;100.00
13661;BME280;6903;49.480;11.102;2023-05-07T00:06:04;97886.91;;;13.79;100.00
13661;BME280;6903;49.480;11.102;2023-05-07T00:08:29;97887.47;;;13.83;100.00
13661;BME280;6903;49.480;11.102;2023-05-07T00:10:55;97887.88;;;13.88;100.00
13661;BME280;6903;49.480;11.102;2023-05-07T00:13:20;97891.59;;;13.95;100.00
13661;BME280;6903;49.480;11.102;2023-05-07T00:15:45;97878.75;;;14.00;100.00
13661;BME280;6903;49.480;11.102;2023-05-07T00:18:11;97880.16;;;14.04;100.00
13661;BME280;6903;49.480;11.102;2023-05-07T00:20:36;97884.88;;;14.10;100.00
13661;BME280;6903;49.480;11.102;2023-05-07T00:23:01;97891.56;;;14.14;100.00
13661;BME280;6903;49.480;11.102;2023-05-07T00:25:26;97886.13;;;14.15;100.00
13661;BME280;6903;49.480;11.102;2023-05-07T00:27:52;97888.47;;;14.18;100.00
13661;BME280;6903;49.480;11.102;2023-05-07T00:30:17;97889.97;;;14.21;100.00
13661;BME280;6903;49.480;11.102;2023-05-07T00:32:42;97889.31;;;14.19;100.00
13661;BME280;6903;49.480;11.102;2023-05-07T00:35:10;97894.31;;;14.22;100.00
13661;BME280;6903;49.480;11.102;2023-05-07T00:37:35;97888.88;;;14.23;100.00
13661;BME280;6903;49.480;11.102;2023-05-07T00:40:01;97890.41;;;14.26;100.00
13661;BME280;6903;49.480;11.102;2023-05-07T00:42:29;97890.41;;;14.26;100.00
13661;BME280;6903;49.480;11.102;2023-05-07T00:44:55;97893.06;;;14.26;100.00
13661;BME280;6903;49.480;11.102;2023-05-07T00:47:20;97892.34;;;14.24;100.00
13661;BME280;6903;49.480;11.102;2023-05-07T00:49:45;97890.56;;;14.25;100.00
13661;BME280;6903;49.480;11.102;2023-05-07T00:52:13;97888.88;;;14.23;100.00
13661;BME280;6903;49.480;11.102;2023-05-07T00:54:41;97886.22;;;14.23;100.00
13661;BME280;6903;49.480;11.102;2023-05-07T00:57:06;97887.03;;;14.24;100.00
13661;BME280;6903;49.480;11.102;2023-05-07T00:59:32;97877.16;;;14.26;100.00
13661;BME280;6903;49.480;11.102;2023-05-07T01:01:58;97878.16;;;14.25;100.00
13661;BME280;6903;49.480;11.102;2023-05-07T01:04:24;97873.38;;;14.29;100.00
13661;BME280;6903;49.480;11.102;2023-05-07T01:06:50;97876.19;;;14.27;100.00
13661;BME280;6903;49.480;11.102;2023-05-07T01:09:16;97870.75;;;14.29;100.00
13661;BME280;6903;49.480;11.102;2023-05-07T01:11:43;97878.69;;;14.29;100.00
13661;BME280;6903;49.480;11.102;2023-05-07T01:14:09;97870.88;;;14.27;100.00
13661;BME280;6903;49.480;11.102;2023-05-07T01:16:34;97870.31;;;14.23;100.00
13661;BME280;6903;49.480;11.102;2023-05-07T01:19:00;97872.97;;;14.23;100.00
13661;BME280;6903;49.480;11.102;2023-05-07T01:21:26;97864.44;;;14.20;100.00
13661;BME280;6903;49.480;11.102;2023-05-07T01:23:52;97869.06;;;14.18;100.00
13661;BME280;6903;49.480;11.102;2023-05-07T01:26:18;97862.78;;;14.19;100.00
13661;BME280;6903;49.480;11.102;2023-05-07T01:28:45;97867.25;;;14.18;100.00
13661;BME280;6903;49.480;11.102;2023-05-07T01:31:12;97865.72;;;14.16;100.00
13661;BME280;6903;49.480;11.102;2023-05-07T01:33:40;97864.91;;;14.15;100.00
13661;BME280;6903;49.480;11.102;2023-05-07T01:36:07;97872.44;;;14.10;100.00
13661;BME280;6903;49.480;11.102;2023-05-07T01:38:34;97869.66;;;14.12;100.00
13661;BME280;6903;49.480;11.102;2023-05-07T01:41:00;97863.50;;;14.11;100.00
13661;BME280;6903;49.480;11.102;2023-05-07T01:43:25;97864.66;;;14.09;100.00
13661;BME280;6903;49.480;11.102;2023-05-07T01:45:51;97855.69;;;14.10;100.00
13661;BME280;6903;49.480;11.102;2023-05-07T01:48:18;97866.31;;;14.10;100.00
13661;BME280;6903;49.480;11.102;2023-05-07T01:50:44;97856.97;;;14.06;100.00
13661;BME280;6903;49.480;11.102;2023-05-07T01:53:09;97869.41;;;14.05;100.00
13661;BME280;6903;49.480;11.102;2023-05-07T01:55:34;97858.78;;;14.05;100.00
13661;BME280;6903;49.480;11.102;2023-05-07T01:58:02;97862.56;;;14.03;100.00
13661;BME280;6903;49.480;11.102;2023-05-07T02:00:27;97862.56;;;14.03;100.00
13661;BME280;6903;49.480;11.102;2023-05-07T02:02:52;97862.31;;;13.96;100.00
13661;BME280;6903;49.480;11.102;2023-05-07T02:05:18;97858.97;;;13.94;100.00
13661;BME280;6903;49.480;11.102;2023-05-07T02:07:43;97864.28;;;13.94;100.00
13661;BME280;6903;49.480;11.102;2023-05-07T02:10:09;97869.44;;;13.96;100.00
13661;BME280;6903;49.480;11.102;2023-05-07T02:12:34;97864.41;;;13.93;100.00
13661;BME280;6903;49.480;11.102;2023-05-07T02:15:00;97866.53;;;13.89;100.00
13661;BME280;6903;49.480;11.102;2023-05-07T02:17:25;97865.97;;;13.86;100.00
13661;BME280;6903;49.480;11.102;2023-05-07T02:19:51;97860.25;;;13.81;100.00
13661;BME280;6903;49.480;11.102;2023-05-07T02:22:16;97859.31;;;13.82;100.00
13661;BME280;6903;49.480;11.102;2023-05-07T02:24:41;97864.88;;;13.79;100.00
13661;BME280;6903;49.480;11.102;2023-05-07T02:27:06;97859.72;;;13.77;100.00
13661;BME280;6903;49.480;11.102;2023-05-07T02:29:32;97868.34;;;13.79;100.00
13661;BME280;6903;49.480;11.102;2023-05-07T02:31:57;97865.44;;;13.73;100.00
13661;BME280;6903;49.480;11.102;2023-05-07T02:34:22;97872.03;;;13.69;100.00
13661;BME280;6903;49.480;11.102;2023-05-07T02:36:48;97866.31;;;13.64;100.00
13661;BME280;6903;49.480;11.102;2023-05-07T02:39:13;97860.59;;;13.59;100.00
13661;BME280;6903;49.480;11.102;2023-05-07T02:41:39;97871.50;;;13.56;100.00
13661;BME280;6903;49.480;11.102;2023-05-07T02:44:04;97870.22;;;13.50;100.00
13661;BME280;6903;49.480;11.102;2023-05-07T02:46:30;97866.06;;;13.48;100.00
13661;BME280;6903;49.480;11.102;2023-05-07T02:48:55;97866.34;;;13.45;100.00
13661;BME280;6903;49.480;11.102;2023-05-07T02:51:21;97869.16;;;13.43;100.00
13661;BME280;6903;49.480;11.102;2023-05-07T02:53:47;97868.59;;;13.40;100.00
13661;BME280;6903;49.480;11.102;2023-05-07T02:56:12;97855.63;;;13.37;100.00
13661;BME280;6903;49.480;11.102;2023-05-07T02:58:38;97876.53;;;13.30;100.00
13661;BME280;6903;49.480;11.102;2023-05-07T03:01:05;97860.09;;;13.27;100.00
13661;BME280;6903;49.480;11.102;2023-05-07T03:03:30;97860.53;;;13.22;100.00
13661;BME280;6903;49.480;11.102;2023-05-07T03:05:55;97852.88;;;13.19;100.00
13661;BME280;6903;49.480;11.102;2023-05-07T03:08:20;97860.53;;;13.13;100.00
13661;BME280;6903;49.480;11.102;2023-05-07T03:10:46;97848.53;;;13.09;100.00
13661;BME280;6903;49.480;11.102;2023-05-07T03:13:12;97858.28;;;13.08;100.00
13661;BME280;6903;49.480;11.102;2023-05-07T03:15:37;97862.88;;;12.97;100.00
13661;BME280;6903;49.480;11.102;2023-05-07T03:18:02;97860.31;;;12.95;100.00
13661;BME280;6903;49.480;11.102;2023-05-07T03:20:27;97865.63;;;12.95;100.00
13661;BME280;6903;49.480;11.102;2023-05-07T03:22:53;97860.75;;;12.91;100.00
13661;BME280;6903;49.480;11.102;2023-05-07T03:25:18;97870.66;;;12.89;100.00
13661;BME280;6903;49.480;11.102;2023-05-07T03:27:43;97867.44;;;12.95;100.00
13661;BME280;6903;49.480;11.102;2023-05-07T03:30:09;97864.53;;;12.88;100.00
13661;BME280;6903;49.480;11.102;2023-05-07T03:32:35;97864.22;;;12.81;100.00
13661;BME280;6903;49.480;11.102;2023-05-07T03:35:01;97861.16;;;12.76;100.00
13661;BME280;6903;49.480;11.102;2023-05-07T03:37:26;97859.63;;;12.74;100.00
13661;BME280;6903;49.480;11.102;2023-05-07T03:39:51;97858.38;;;12.68;100.00
13661;BME280;6903;49.480;11.102;2023-05-07T03:42:17;97856.72;;;12.67;100.00
13661;BME280;6903;49.480;11.102;2023-05-07T03:44:42;97856.56;;;12.69;100.00
13661;BME280;6903;49.480;11.102;2023-05-07T03:47:07;97867.53;;;12.64;100.00
13661;BME280;6903;49.480;11.102;2023-05-07T03:49:33;97867.00;;;12.61;100.00
13661;BME280;6903;49.480;11.102;2023-05-07T03:51:58;97869.78;;;12.59;100.00
13661;BME280;6903;49.480;11.102;2023-05-07T03:54:23;97867.28;;;12.58;100.00
13661;BME280;6903;49.480;11.102;2023-05-07T03:56:49;97872.56;;;12.58;100.00
13661;BME280;6903;49.480;11.102;2023-05-07T03:59:14;97877.00;;;12.57;100.00
13661;BME280;6903;49.480;11.102;2023-05-07T04:01:39;97880.59;;;12.56;100.00
13661;BME280;6903;49.480;11.102;2023-05-07T04:04:05;97886.03;;;12.55;100.00
13661;BME280;6903;49.480;11.102;2023-05-07T04:06:30;97887.00;;;12.54;100.00
13661;BME280;6903;49.480;11.102;2023-05-07T04:08:56;97890.78;;;12.51;100.00
13661;BME280;6903;49.480;11.102;2023-05-07T04:11:21;97892.56;;;12.51;100.00
13661;BME280;6903;49.480;11.102;2023-05-07T04:13:46;97892.56;;;12.51;100.00
13661;BME280;6903;49.480;11.102;2023-05-07T04:16:12;97901.34;;;12.51;100.00
13661;BME280;6903;49.480;11.102;2023-05-07T04:18:37;97902.75;;;12.55;100.00
13661;BME280;6903;49.480;11.102;2023-05-07T04:21:03;97907.63;;;12.60;100.00
13661;BME280;6903;49.480;11.102;2023-05-07T04:23:28;97916.00;;;12.65;100.00
13661;BME280;6903;49.480;11.102;2023-05-07T04:25:53;97914.50;;;12.72;100.00
13661;BME280;6903;49.480;11.102;2023-05-07T04:28:19;97924.66;;;12.76;100.00
13661;BME280;6903;49.480;11.102;2023-05-07T04:30:45;97923.28;;;12.82;100.00
13661;BME280;6903;49.480;11.102;2023-05-07T04:33:10;97926.22;;;12.89;100.00
13661;BME280;6903;49.480;11.102;2023-05-07T04:35:36;97924.69;;;12.96;100.00
13661;BME280;6903;49.480;11.102;2023-05-07T04:38:02;97925.84;;;13.03;100.00
13661;BME280;6903;49.480;11.102;2023-05-07T04:40:27;97922.22;;;13.04;100.00
13661;BME280;6903;49.480;11.102;2023-05-07T04:42:52;97924.19;;;13.11;100.00
13661;BME280;6903;49.480;11.102;2023-05-07T04:45:18;97926.44;;;13.16;100.00
13661;BME280;6903;49.480;11.102;2023-05-07T04:47:43;97927.13;;;13.27;100.00
13661;BME280;6903;49.480;11.102;2023-05-07T04:50:09;97931.31;;;13.39;100.00
13661;BME280;6903;49.480;11.102;2023-05-07T04:52:35;97933.78;;;13.60;100.00
13661;BME280;6903;49.480;11.102;2023-05-07T04:55:01;97934.91;;;13.76;100.00
13661;BME280;6903;49.480;11.102;2023-05-07T04:57:27;97935.59;;;13.88;100.00
13661;BME280;6903;49.480;11.102;2023-05-07T04:59:53;97934.31;;;13.92;100.00
13661;BME280;6903;49.480;11.102;2023-05-07T05:02:18;97937.22;;;13.98;100.00
13661;BME280;6903;49.480;11.102;2023-05-07T05:04:43;97935.28;;;14.00;100.00
13661;BME280;6903;49.480;11.102;2023-05-07T05:07:09;97944.47;;;14.06;100.00
13661;BME280;6903;49.480;11.102;2023-05-07T05:09:34;97929.53;;;14.05;100.00
13661;BME280;6903;49.480;11.102;2023-05-07T05:11:59;97931.75;;;14.09;100.00
13661;BME280;6903;49.480;11.102;2023-05-07T05:14:25;97937.03;;;14.09;100.00
13661;BME280;6903;49.480;11.102;2023-05-07T05:16:50;97938.00;;;14.18;100.00
13661;BME280;6903;49.480;11.102;2023-05-07T05:19:15;97938.00;;;14.28;100.00
13661;BME280;6903;49.480;11.102;2023-05-07T05:21:41;97940.69;;;14.55;100.00
13661;BME280;6903;49.480;11.102;2023-05-07T05:24:06;97944.72;;;14.86;100.00
13661;BME280;6903;49.480;11.102;2023-05-07T05:26:32;97946.34;;;14.96;100.00
13661;BME280;6903;49.480;11.102;2023-05-07T05:28:57;97942.50;;;15.26;100.00
13661;BME280;6903;49.480;11.102;2023-05-07T05:31:22;97950.50;;;15.43;100.00
13661;BME280;6903;49.480;11.102;2023-05-07T05:33:48;97936.69;;;15.57;100.00
13661;BME280;6903;49.480;11.102;2023-05-07T05:36:13;97944.13;;;15.54;100.00
13661;BME280;6903;49.480;11.102;2023-05-07T05:38:39;97938.28;;;15.50;100.00
13661;BME280;6903;49.480;11.102;2023-05-07T05:41:05;97949.00;;;15.58;100.00
13661;BME280;6903;49.480;11.102;2023-05-07T05:43:30;97945.34;;;15.42;100.00
13661;BME280;6903;49.480;11.102;2023-05-07T05:45:56;97944.66;;;15.40;100.00
13661;BME280;6903;49.480;11.102;2023-05-07T05:48:22;97946.53;;;15.30;100.00
13661;BME280;6903;49.480;11.102;2023-05-07T05:50:47;97940.03;;;15.42;100.00
13661;BME280;6903;49.480;11.102;2023-05-07T05:53:13;97941.16;;;15.22;100.00
13661;BME280;6903;49.480;11.102;2023-05-07T05:55:38;97938.84;;;15.09;100.00
13661;BME280;6903;49.480;11.102;2023-05-07T05:58:03;97946.38;;;15.14;100.00
13661;BME280;6903;49.480;11.102;2023-05-07T06:00:29;97945.69;;;15.12;100.00
13661;BME280;6903;49.480;11.102;2023-05-07T06:02:54;97939.91;;;15.16;100.00
13661;BME280;6903;49.480;11.102;2023-05-07T06:05:19;97934.38;;;15.27;100.00
13661;BME280;6903;49.480;11.102;2023-05-07T06:07:45;97946.38;;;15.31;100.00
13661;BME280;6903;49.480;11.102;2023-05-07T06:10:10;97939.63;;;15.37;100.00
13661;BME280;6903;49.480;11.102;2023-05-07T06:12:35;97954.63;;;15.55;100.00
13661;BME280;6903;49.480;11.102;2023-05-07T06:15:01;97951.34;;;15.62;100.00
13661;BME280;6903;49.480;11.102;2023-05-07T06:17:26;97953.69;;;15.65;100.00
13661;BME280;6903;49.480;11.102;2023-05-07T06:19:52;97945.47;;;15.58;100.00
13661;BME280;6903;49.480;11.102;2023-05-07T06:22:17;97944.28;;;15.70;100.00
13661;BME280;6903;49.480;11.102;2023-05-07T06:24:43;97943.81;;;15.75;100.00
13661;BME280;6903;49.480;11.102;2023-05-07T06:27:08;97938.56;;;15.83;100.00
13661;BME280;6903;49.480;11.102;2023-05-07T06:29:33;97945.53;;;15.84;100.00
13661;BME280;6903;49.480;11.102;2023-05-07T06:32:09;97953.72;;;15.90;100.00
13661;BME280;6903;49.480;11.102;2023-05-07T06:34:35;97966.50;;;15.87;100.00
13661;BME280;6903;49.480;11.102;2023-05-07T06:37:00;97959.25;;;15.97;100.00
13661;BME280;6903;49.480;11.102;2023-05-07T06:39:26;97961.66;;;16.08;100.00
13661;BME280;6903;49.480;11.102;2023-05-07T06:41:51;97971.28;;;16.26;100.00
13661;BME280;6903;49.480;11.102;2023-05-07T06:44:17;97977.84;;;16.40;100.00
13661;BME280;6903;49.480;11.102;2023-05-07T06:46:42;97970.00;;;16.38;100.00
13661;BME280;6903;49.480;11.102;2023-05-07T06:49:07;97978.25;;;16.27;100.00
13661;BME280;6903;49.480;11.102;2023-05-07T06:51:33;97978.16;;;16.37;100.00
13661;BME280;6903;49.480;11.102;2023-05-07T06:53:59;97982.31;;;16.57;100.00
13661;BME280;6903;49.480;11.102;2023-05-07T06:56:24;97979.72;;;16.73;100.00
13661;BME280;6903;49.480;11.102;2023-05-07T06:58:50;97978.97;;;16.96;100.00
13661;BME280;6903;49.480;11.102;2023-05-07T07:01:15;97973.53;;;17.14;100.00
13661;BME280;6903;49.480;11.102;2023-05-07T07:03:40;97974.56;;;17.13;100.00
13661;BME280;6903;49.480;11.102;2023-05-07T07:06:06;97979.91;;;17.21;100.00
13661;BME280;6903;49.480;11.102;2023-05-07T07:08:31;97982.66;;;17.45;100.00
13661;BME280;6903;49.480;11.102;2023-05-07T07:10:57;97980.66;;;17.47;100.00
13661;BME280;6903;49.480;11.102;2023-05-07T07:13:22;97983.97;;;17.41;100.00
13661;BME280;6903;49.480;11.102;2023-05-07T07:15:48;97976.03;;;17.57;100.00
13661;BME280;6903;49.480;11.102;2023-05-07T07:18:13;97976.53;;;17.77;100.00
13661;BME280;6903;49.480;11.102;2023-05-07T07:20:38;97980.72;;;17.95;100.00
13661;BME280;6903;49.480;11.102;2023-05-07T07:23:04;97979.34;;;18.15;100.00
13661;BME280;6903;49.480;11.102;2023-05-07T07:25:29;97975.19;;;18.21;100.00
13661;BME280;6903;49.480;11.102;2023-05-07T07:27:54;97979.00;;;18.59;100.00
13661;BME280;6903;49.480;11.102;2023-05-07T07:30:20;97976.19;;;18.99;100.00
13661;BME280;6903;49.480;11.102;2023-05-07T07:32:45;97977.03;;;19.30;100.00
13661;BME280;6903;49.480;11.102;2023-05-07T07:35:10;97980.94;;;19.50;100.00
13661;BME280;6903;49.480;11.102;2023-05-07T07:37:36;97974.53;;;19.28;100.00
13661;BME280;6903;49.480;11.102;2023-05-07T07:40:01;97977.69;;;19.62;100.00
13661;BME280;6903;49.480;11.102;2023-05-07T07:42:27;97977.25;;;19.96;100.00
13661;BME280;6903;49.480;11.102;2023-05-07T07:44:52;97986.25;;;20.03;100.00
13661;BME280;6903;49.480;11.102;2023-05-07T07:47:17;97989.22;;;20.08;100.00
13661;BME280;6903;49.480;11.102;2023-05-07T07:49:43;97984.22;;;20.05;100.00
13661;BME280;6903;49.480;11.102;2023-05-07T07:52:08;97976.56;;;20.25;100.00
13661;BME280;6903;49.480;11.102;2023-05-07T07:54:33;97981.44;;;20.21;100.00
13661;BME280;6903;49.480;11.102;2023-05-07T07:56:58;97983.00;;;20.08;100.00
13661;BME280;6903;49.480;11.102;2023-05-07T07:59:24;97976.00;;;20.07;100.00
13661;BME280;6903;49.480;11.102;2023-05-07T08:01:50;97981.25;;;20.00;100.00
13661;BME280;6903;49.480;11.102;2023-05-07T08:04:17;97973.41;;;19.76;100.00
13661;BME280;6903;49.480;11.102;2023-05-07T08:06:42;97980.41;;;19.54;100.00
13661;BME280;6903;49.480;11.102;2023-05-07T08:09:07;97971.63;;;19.38;100.00
13661;BME280;6903;49.480;11.102;2023-05-07T08:11:33;97969.34;;;19.27;100.00
13661;BME280;6903;49.480;11.102;2023-05-07T08:13:58;97975.69;;;19.34;100.00
13661;BME280;6903;49.480;11.102;2023-05-07T08:16:24;97984.09;;;19.53;100.00
13661;BME280;6903;49.480;11.102;2023-05-07T08:18:49;97978.09;;;19.51;100.00
13661;BME280;6903;49.480;11.102;2023-05-07T08:21:14;97989.41;;;19.84;100.00
13661;BME280;6903;49.480;11.102;2023-05-07T08:23:40;97982.91;;;20.24;100.00
13661;BME280;6903;49.480;11.102;2023-05-07T08:26:05;97983.31;;;20.50;100.00
13661;BME280;6903;49.480;11.102;2023-05-07T08:28:30;97983.44;;;20.85;100.00
13661;BME280;6903;49.480;11.102;2023-05-07T08:30:56;97991.75;;;21.20;100.00
13661;BME280;6903;49.480;11.102;2023-05-07T08:33:26;97983.50;;;21.36;100.00
13661;BME280;6903;49.480;11.102;2023-05-07T08:35:51;97990.94;;;21.04;100.00
13661;BME280;6903;49.480;11.102;2023-05-07T08:38:17;97997.09;;;21.34;100.00
13661;BME280;6903;49.480;11.102;2023-05-07T08:40:42;97997.06;;;21.84;100.00
13661;BME280;6903;49.480;11.102;2023-05-07T08:43:07;98003.00;;;22.22;99.20
13661;BME280;6903;49.480;11.102;2023-05-07T08:45:34;98001.88;;;22.37;95.98
13661;BME280;6903;49.480;11.102;2023-05-07T08:48:03;98005.16;;;22.33;94.36
13661;BME280;6903;49.480;11.102;2023-05-07T08:50:30;98000.91;;;22.17;95.53
13661;BME280;6903;49.480;11.102;2023-05-07T08:52:56;98003.66;;;21.82;96.91
13661;BME280;6903;49.480;11.102;2023-05-07T08:55:22;98004.34;;;21.55;99.08
13661;BME280;6903;49.480;11.102;2023-05-07T08:57:48;97993.94;;;21.45;100.00
13661;BME280;6903;49.480;11.102;2023-05-07T09:00:14;97987.22;;;21.91;98.77
13661;BME280;6903;49.480;11.102;2023-05-07T09:02:39;97989.06;;;22.12;96.56
13661;BME280;6903;49.480;11.102;2023-05-07T09:05:05;97982.69;;;22.13;95.51
13661;BME280;6903;49.480;11.102;2023-05-07T09:07:31;97988.84;;;22.34;95.07
13661;BME280;6903;49.480;11.102;2023-05-07T09:09:56;97986.34;;;22.54;93.14
13661;BME280;6903;49.480;11.102;2023-05-07T09:12:22;97996.16;;;22.40;92.25
13661;BME280;6903;49.480;11.102;2023-05-07T09:14:49;97993.25;;;22.42;93.66
13661;BME280;6903;49.480;11.102;2023-05-07T09:17:18;97995.28;;;22.61;91.65
13661;BME280;6903;49.480;11.102;2023-05-07T09:19:44;97990.31;;;22.58;91.27
13661;BME280;6903;49.480;11.102;2023-05-07T09:22:13;97994.88;;;22.92;89.71
13661;BME280;6903;49.480;11.102;2023-05-07T09:24:38;97991.56;;;22.96;88.00
13661;BME280;6903;49.480;11.102;2023-05-07T09:27:05;97982.63;;;22.89;89.35
13661;BME280;6903;49.480;11.102;2023-05-07T09:29:30;97978.25;;;22.82;88.99
13661;BME280;6903;49.480;11.102;2023-05-07T09:32:05;97976.06;;;22.64;89.62
13661;BME280;6903;49.480;11.102;2023-05-07T09:34:31;97976.28;;;22.97;89.84
13661;BME280;6903;49.480;11.102;2023-05-07T09:36:59;97979.28;;;23.21;86.59
13661;BME280;6903;49.480;11.102;2023-05-07T09:39:25;97977.00;;;22.84;87.90
13661;BME280;6903;49.480;11.102;2023-05-07T09:41:50;97966.25;;;22.84;88.61
13661;BME280;6903;49.480;11.102;2023-05-07T09:44:20;97967.03;;;23.12;87.66
13661;BME280;6903;49.480;11.102;2023-05-07T09:46:47;97967.44;;;23.56;85.75
13661;BME280;6903;49.480;11.102;2023-05-07T09:49:22;97966.53;;;23.36;83.66
13661;BME280;6903;49.480;11.102;2023-05-07T09:51:49;97967.97;;;23.39;84.18
13661;BME280;6903;49.480;11.102;2023-05-07T09:54:16;97963.06;;;23.08;84.84
13661;BME280;6903;49.480;11.102;2023-05-07T09:56:43;97968.00;;;22.98;85.53
13661;BME280;6903;49.480;11.102;2023-05-07T09:59:10;97966.44;;;23.17;85.11
13661;BME280;6903;49.480;11.102;2023-05-07T10:01:38;97972.22;;;23.67;82.94
13661;BME280;6903;49.480;11.102;2023-05-07T10:04:05;97964.00;;;23.89;81.25
13661;BME280;6903;49.480;11.102;2023-05-07T10:06:34;97967.72;;;23.94;81.65
13661;BME280;6903;49.480;11.102;2023-05-07T10:09:00;97962.28;;;23.68;81.04
13661;BME280;6903;49.480;11.102;2023-05-07T10:11:26;97968.69;;;23.67;81.04
13661;BME280;6903;49.480;11.102;2023-05-07T10:13:52;97969.81;;;24.12;78.96
13661;BME280;6903;49.480;11.102;2023-05-07T10:16:18;97973.38;;;24.45;76.49
13661;BME280;6903;49.480;11.102;2023-05-07T10:18:45;97966.28;;;24.83;73.35
13661;BME280;6903;49.480;11.102;2023-05-07T10:23:38;97965.47;;;24.11;74.03
13661;BME280;6903;49.480;11.102;2023-05-07T10:26:05;97969.22;;;24.68;73.19
13661;BME280;6903;49.480;11.102;2023-05-07T10:28:37;97958.63;;;24.47;72.01
13661;BME280;6903;49.480;11.102;2023-05-07T10:33:35;97958.97;;;25.03;70.39
13661;BME280;6903;49.480;11.102;2023-05-07T10:36:03;97959.00;;;25.47;68.98
13661;BME280;6903;49.480;11.102;2023-05-07T10:38:30;97961.22;;;26.01;66.20
13661;BME280;6903;49.480;11.102;2023-05-07T10:40:55;97957.41;;;26.08;64.81
13661;BME280;6903;49.480;11.102;2023-05-07T10:43:21;97951.09;;;25.90;65.73
13661;BME280;6903;49.480;11.102;2023-05-07T10:46:26;97953.63;;;26.16;63.96
13661;BME280;6903;49.480;11.102;2023-05-07T10:51:30;97951.28;;;25.57;61.75
13661;BME280;6903;49.480;11.102;2023-05-07T10:54:18;97949.97;;;25.66;62.77
13661;BME280;6903;49.480;11.102;2023-05-07T10:56:44;97945.06;;;25.88;62.96
13661;BME280;6903;49.480;11.102;2023-05-07T11:01:56;97945.69;;;26.64;59.98
13661;BME280;6903;49.480;11.102;2023-05-07T11:04:23;97934.16;;;27.29;57.58
13661;BME280;6903;49.480;11.102;2023-05-07T11:10:05;97939.19;;;27.43;53.39
13661;BME280;6903;49.480;11.102;2023-05-07T11:15:13;97930.72;;;26.43;57.21
13661;BME280;6903;49.480;11.102;2023-05-07T11:17:58;97928.59;;;26.70;56.10
13661;BME280;6903;49.480;11.102;2023-05-07T11:20:49;97921.84;;;26.79;55.63
13661;BME280;6903;49.480;11.102;2023-05-07T11:26:09;97932.31;;;26.26;56.57
13661;BME280;6903;49.480;11.102;2023-05-07T11:28:39;97919.75;;;26.13;57.50
13661;BME280;6903;49.480;11.102;2023-05-07T11:31:05;97918.88;;;26.62;56.42
13661;BME280;6903;49.480;11.102;2023-05-07T11:33:31;97914.41;;;26.92;55.60
13661;BME280;6903;49.480;11.102;2023-05-07T11:35:57;97921.94;;;26.23;56.75
13661;BME280;6903;49.480;11.102;2023-05-07T11:38:23;97924.09;;;25.52;59.02
13661;BME280;6903;49.480;11.102;2023-05-07T11:40:49;97924.59;;;25.98;58.19
13661;BME280;6903;49.480;11.102;2023-05-07T11:43:15;97921.66;;;26.06;56.67
13661;BME280;6903;49.480;11.102;2023-05-07T11:45:41;97927.75;;;25.95;57.77
13661;BME280;6903;49.480;11.102;2023-05-07T11:48:06;97913.38;;;25.39;59.32
13661;BME280;6903;49.480;11.102;2023-05-07T11:50:31;97914.63;;;24.60;61.61
13661;BME280;6903;49.480;11.102;2023-05-07T11:52:57;97911.78;;;24.42;63.05
13661;BME280;6903;49.480;11.102;2023-05-07T11:55:24;97915.53;;;24.21;62.89
13661;BME280;6903;49.480;11.102;2023-05-07T11:57:50;97923.59;;;24.08;62.92
13661;BME280;6903;49.480;11.102;2023-05-07T12:00:15;97924.81;;;23.93;64.34
13661;BME280;6903;49.480;11.102;2023-05-07T12:02:41;97915.72;;;24.20;62.98
13661;BME280;6903;49.480;11.102;2023-05-07T12:05:07;97916.34;;;24.28;62.41
13661;BME280;6903;49.480;11.102;2023-05-07T12:07:34;97916.34;;;24.22;63.36
13661;BME280;6903;49.480;11.102;2023-05-07T12:10:04;97912.03;;;24.08;65.52
13661;BME280;6903;49.480;11.102;2023-05-07T12:12:29;97915.28;;;23.84;66.70
13661;BME280;6903;49.480;11.102;2023-05-07T12:14:55;97916.31;;;23.56;67.99
13661;BME280;6903;49.480;11.102;2023-05-07T12:17:20;97918.38;;;23.67;68.35
13661;BME280;6903;49.480;11.102;2023-05-07T12:19:46;97913.00;;;23.61;68.44
13661;BME280;6903;49.480;11.102;2023-05-07T12:22:12;97917.53;;;23.54;67.83
13661;BME280;6903;49.480;11.102;2023-05-07T12:24:48;97907.75;;;23.33;69.84
13661;BME280;6903;49.480;11.102;2023-05-07T12:27:15;97911.63;;;23.24;70.71
13661;BME280;6903;49.480;11.102;2023-05-07T12:29:45;97915.50;;;23.15;70.94
13661;BME280;6903;49.480;11.102;2023-05-07T12:32:15;97911.16;;;23.08;72.13
13661;BME280;6903;49.480;11.102;2023-05-07T12:34:41;97909.63;;;22.86;72.60
13661;BME280;6903;49.480;11.102;2023-05-07T12:37:07;97914.34;;;22.84;72.71
13661;BME280;6903;49.480;11.102;2023-05-07T12:39:32;97907.84;;;22.65;72.81
13661;BME280;6903;49.480;11.102;2023-05-07T12:41:59;97915.28;;;22.70;72.59
13661;BME280;6903;49.480;11.102;2023-05-07T12:44:34;97913.91;;;22.80;71.46
13661;BME280;6903;49.480;11.102;2023-05-07T12:47:03;97912.25;;;22.73;72.29
13661;BME280;6903;49.480;11.102;2023-05-07T12:49:28;97911.63;;;22.77;71.56
13661;BME280;6903;49.480;11.102;2023-05-07T12:51:53;97907.06;;;22.78;71.66
13661;BME280;6903;49.480;11.102;2023-05-07T12:54:37;97908.00;;;22.98;70.48
13661;BME280;6903;49.480;11.102;2023-05-07T12:57:04;97910.53;;;23.12;69.86
13661;BME280;6903;49.480;11.102;2023-05-07T12:59:40;97896.41;;;22.97;70.13
13661;BME280;6903;49.480;11.102;2023-05-07T13:02:07;97905.28;;;22.91;69.49
13661;BME280;6903;49.480;11.102;2023-05-07T13:04:33;97901.41;;;23.07;69.62
13661;BME280;6903;49.480;11.102;2023-05-07T13:07:00;97895.06;;;23.21;68.31